createdAt,value
2022-10-06T00:00:29.080Z,78.46
2022-10-06T00:03:03.536Z,78.07
2022-10-06T00:05:37.685Z,78.20
2022-10-06T00:08:12.435Z,78.20
2022-10-06T00:10:47.890Z,77.75
2022-10-06T00:13:22.289Z,77.87
2022-10-06T00:15:56.543Z,78.42
2022-10-06T00:18:31.661Z,78.48
2022-10-06T00:21:06.113Z,78.67
2022-10-06T00:23:40.629Z,78.33
2022-10-06T00:26:17.324Z,78.58
2022-10-06T00:28:51.876Z,78.92
2022-10-06T00:31:26.155Z,78.42
2022-10-06T00:34:00.648Z,79.18
2022-10-06T00:36:34.811Z,78.96
2022-10-06T00:39:09.275Z,79.47
2022-10-06T00:41:44.752Z,79.91
2022-10-06T00:44:19.080Z,79.77
2022-10-06T00:46:54.776Z,79.58
2022-10-06T00:49:33.763Z,79.25
2022-10-06T00:52:11.805Z,79.14
2022-10-06T00:54:46.489Z,78.86
2022-10-06T00:57:22.380Z,78.50
2022-10-06T00:59:57.065Z,78.86
2022-10-06T01:02:37.077Z,79.17
2022-10-06T01:05:17.335Z,79.27
2022-10-06T01:07:51.792Z,80.12
2022-10-06T01:10:28.065Z,80.07
2022-10-06T01:13:03.886Z,79.71
2022-10-06T01:15:40.908Z,79.42
2022-10-06T01:18:18.760Z,78.80
2022-10-06T01:20:59.240Z,79.23
2022-10-06T01:23:36.510Z,79.62
2022-10-06T01:26:13.584Z,79.88
2022-10-06T01:28:49.412Z,79.71
2022-10-06T01:31:24.507Z,79.55
2022-10-06T01:33:59.638Z,79.63
2022-10-06T01:36:35.001Z,79.74
2022-10-06T01:39:10.854Z,80.04
2022-10-06T01:41:47.755Z,80.45
2022-10-06T01:44:22.414Z,80.69
2022-10-06T01:46:57.802Z,80.38
2022-10-06T01:49:31.965Z,79.72
2022-10-06T01:52:06.427Z,79.18
2022-10-06T01:54:43.489Z,79.28
2022-10-06T01:57:17.904Z,79.32
2022-10-06T01:59:54.716Z,79.74
2022-10-06T02:02:32.125Z,80.23
2022-10-06T02:05:06.690Z,80.37
2022-10-06T02:07:42.017Z,80.14
2022-10-06T02:10:21.155Z,79.99
2022-10-06T02:12:56.004Z,80.41
2022-10-06T02:15:33.337Z,80.19
2022-10-06T02:18:07.683Z,79.86
2022-10-06T02:20:41.965Z,79.81
2022-10-06T02:23:16.060Z,79.85
2022-10-06T02:25:58.634Z,80.06
2022-10-06T02:28:33.938Z,79.47
2022-10-06T02:31:10.426Z,78.99
2022-10-06T02:33:44.937Z,79.25
2022-10-06T02:36:19.544Z,79.98
2022-10-06T02:38:53.883Z,80.41
2022-10-06T02:41:30.078Z,80.08
2022-10-06T02:44:04.326Z,79.98
2022-10-06T02:46:38.770Z,79.50
2022-10-06T02:49:13.438Z,78.93
2022-10-06T02:51:47.860Z,79.16
2022-10-06T02:54:23.335Z,80.06
2022-10-06T02:56:59.291Z,80.27
2022-10-06T02:59:34.057Z,79.94
2022-10-06T03:02:08.464Z,79.85
2022-10-06T03:04:42.827Z,79.23
2022-10-06T03:07:18.012Z,79.24
2022-10-06T03:09:52.962Z,78.94
2022-10-06T03:12:30.087Z,79.12
2022-10-06T03:15:04.277Z,79.00
2022-10-06T03:17:39.259Z,78.68
2022-10-06T03:20:15.172Z,78.86
2022-10-06T03:22:50.440Z,80.11
2022-10-06T03:25:24.606Z,80.24
2022-10-06T03:28:00.705Z,80.30
2022-10-06T03:30:36.285Z,80.22
2022-10-06T03:33:11.047Z,80.05
2022-10-06T03:35:45.179Z,79.65
2022-10-06T03:38:19.636Z,80.14
2022-10-06T03:40:54.281Z,79.77
2022-10-06T03:43:30.200Z,80.22
2022-10-06T03:46:06.054Z,80.37
2022-10-06T03:48:41.281Z,79.81
2022-10-06T03:51:17.187Z,79.72
2022-10-06T03:53:52.891Z,79.54
2022-10-06T03:56:29.308Z,99.26
2022-10-06T03:59:07.343Z,98.14
2022-10-06T04:01:43.761Z,80.74
2022-10-06T04:04:18.577Z,78.37
2022-10-06T04:06:54.452Z,77.35
2022-10-06T04:09:28.876Z,76.53
2022-10-06T04:12:03.262Z,77.97
2022-10-06T04:14:39.640Z,78.40
2022-10-06T04:17:14.046Z,78.10
2022-10-06T04:19:48.778Z,78.98
2022-10-06T04:22:22.774Z,77.59
2022-10-06T04:24:57.150Z,78.44
2022-10-06T04:27:31.387Z,78.97
2022-10-06T04:30:08.245Z,77.59
2022-10-06T04:32:42.894Z,78.32
2022-10-06T04:35:17.664Z,78.30
2022-10-06T04:37:53.013Z,79.03
2022-10-06T04:40:27.613Z,78.71
2022-10-06T04:43:02.754Z,79.10
2022-10-06T04:45:39.097Z,79.16
2022-10-06T04:48:13.456Z,86.98
2022-10-06T04:50:54.986Z,93.31
2022-10-06T04:53:30.637Z,98.95
2022-10-06T04:56:07.381Z,85.28
2022-10-06T04:58:43.427Z,81.79
2022-10-06T05:01:21.698Z,77.11
2022-10-06T05:03:57.869Z,77.29
2022-10-06T05:06:35.037Z,77.10
2022-10-06T05:09:10.829Z,77.52
2022-10-06T05:11:46.163Z,77.72
2022-10-06T05:14:20.450Z,77.67
2022-10-06T05:16:56.299Z,78.16
2022-10-06T05:19:30.373Z,78.14
2022-10-06T05:22:04.847Z,77.29
2022-10-06T05:24:38.973Z,76.89
2022-10-06T05:27:13.639Z,77.61
2022-10-06T05:29:48.072Z,76.58
2022-10-06T05:32:23.969Z,76.51
2022-10-06T05:34:58.053Z,76.96
2022-10-06T05:37:32.586Z,78.31
2022-10-06T05:40:07.858Z,77.04
2022-10-06T05:42:42.409Z,76.96
2022-10-06T05:45:16.725Z,77.13
2022-10-06T05:47:57.701Z,76.24
2022-10-06T05:50:31.968Z,78.12
2022-10-06T05:53:06.392Z,78.01
2022-10-06T05:55:40.629Z,77.72
2022-10-06T05:58:18.492Z,78.42
2022-10-06T06:00:53.339Z,79.27
2022-10-06T06:03:29.427Z,78.77
2022-10-06T06:06:03.752Z,77.68
2022-10-06T06:08:38.177Z,78.28
2022-10-06T06:11:12.809Z,79.76
2022-10-06T06:13:47.270Z,80.20
2022-10-06T06:16:20.550Z,80.31
2022-10-06T06:18:57.169Z,80.61
2022-10-06T06:21:33.019Z,80.39
2022-10-06T06:24:08.286Z,80.00
2022-10-06T06:26:42.475Z,79.44
2022-10-06T06:29:16.903Z,80.80
2022-10-06T06:31:51.417Z,80.92
2022-10-06T06:34:29.148Z,81.67
2022-10-06T06:37:07.528Z,82.30
2022-10-06T06:39:44.276Z,83.86
2022-10-06T06:42:18.904Z,83.37
2022-10-06T06:44:55.512Z,82.09
2022-10-06T06:47:30.058Z,81.90
2022-10-06T06:50:10.408Z,81.51
2022-10-06T06:52:44.791Z,82.81
2022-10-06T06:55:19.653Z,82.63
2022-10-06T06:57:53.690Z,82.88
2022-10-06T07:00:32.531Z,81.60
2022-10-06T07:03:14.233Z,82.44
2022-10-06T07:05:50.184Z,83.04
2022-10-06T07:08:25.025Z,83.71
2022-10-06T07:10:59.572Z,84.27
2022-10-06T07:13:35.212Z,83.99
2022-10-06T07:16:29.612Z,83.43
2022-10-06T07:19:25.008Z,83.11
2022-10-06T07:22:21.172Z,82.98
2022-10-06T07:25:11.828Z,83.36
2022-10-06T07:27:47.560Z,84.47
2022-10-06T07:30:23.788Z,84.72
2022-10-06T07:32:58.561Z,83.52
2022-10-06T07:35:33.025Z,83.77
2022-10-06T07:38:09.768Z,83.99
2022-10-06T07:40:50.518Z,82.95
2022-10-06T07:43:38.376Z,93.83
2022-10-06T07:46:12.802Z,96.86
2022-10-06T07:48:49.432Z,87.84
2022-10-06T07:51:24.915Z,95.02
2022-10-06T07:54:00.983Z,89.93
2022-10-06T07:56:35.425Z,82.81
2022-10-06T07:59:09.805Z,81.75
2022-10-06T08:01:45.857Z,80.30
2022-10-06T08:04:20.408Z,79.99
2022-10-06T08:06:58.557Z,80.00
2022-10-06T08:09:34.319Z,78.67
2022-10-06T08:12:22.220Z,78.16
2022-10-06T08:14:56.822Z,78.18
2022-10-06T08:17:31.535Z,77.26
2022-10-06T08:20:10.593Z,77.31
2022-10-06T08:22:45.401Z,76.83
2022-10-06T08:25:21.492Z,76.98
2022-10-06T08:27:55.606Z,75.82
2022-10-06T08:30:30.104Z,75.49
2022-10-06T08:33:04.360Z,74.97
2022-10-06T08:35:39.658Z,73.94
2022-10-06T08:38:14.815Z,74.17
2022-10-06T08:40:50.878Z,73.61
2022-10-06T08:43:27.355Z,73.42
2022-10-06T08:46:04.498Z,73.12
2022-10-06T08:48:38.896Z,73.39
2022-10-06T08:51:26.673Z,72.99
2022-10-06T08:54:09.784Z,70.99
2022-10-06T08:56:56.389Z,71.06
2022-10-06T08:59:34.519Z,71.87
2022-10-06T09:02:23.991Z,71.71
2022-10-06T09:05:01.094Z,70.77
2022-10-06T09:07:43.879Z,69.38
2022-10-06T09:10:42.987Z,68.03
2022-10-06T09:13:23.393Z,64.67
2022-10-06T09:16:01.522Z,65.76
2022-10-06T09:21:40.382Z,66.22
2022-10-06T09:24:17.501Z,65.37
2022-10-06T09:26:52.440Z,66.44
2022-10-06T09:29:31.970Z,67.90
2022-10-06T09:32:06.881Z,66.80
2022-10-06T09:34:45.896Z,66.04
2022-10-06T09:37:20.392Z,66.85
2022-10-06T09:39:56.065Z,66.05
2022-10-06T09:42:35.848Z,65.24
2022-10-06T09:45:26.669Z,64.66
2022-10-06T09:48:12.939Z,63.33
2022-10-06T09:51:01.549Z,63.14
2022-10-06T09:53:37.746Z,61.90
2022-10-06T09:56:19.447Z,62.28
2022-10-06T09:58:57.352Z,64.24
2022-10-06T10:01:33.107Z,64.09
2022-10-06T10:04:20.491Z,61.84
2022-10-06T10:06:55.361Z,63.59
2022-10-06T10:09:31.152Z,62.21
2022-10-06T10:12:28.061Z,62.28
2022-10-06T10:15:04.728Z,61.37
2022-10-06T10:17:48.388Z,62.67
2022-10-06T10:20:50.614Z,63.10
2022-10-06T10:23:31.865Z,62.18
2022-10-06T10:26:27.212Z,61.23
2022-10-06T10:29:33.290Z,61.42
2022-10-06T10:32:15.355Z,59.93
2022-10-06T10:35:04.536Z,61.12
2022-10-06T10:37:44.442Z,60.16
2022-10-06T10:40:30.226Z,60.58
2022-10-06T10:43:21.652Z,59.36
2022-10-06T10:46:02.523Z,59.72
2022-10-06T10:48:43.796Z,60.12
2022-10-06T10:51:24.309Z,60.51
2022-10-06T10:54:05.200Z,59.16
2022-10-06T10:56:44.037Z,59.67
2022-10-06T10:59:23.311Z,58.19
2022-10-06T11:02:01.990Z,59.41
2022-10-06T11:04:42.107Z,60.78
2022-10-06T11:07:26.578Z,60.43
2022-10-06T11:10:10.240Z,61.94
2022-10-06T11:13:10.349Z,62.21
2022-10-06T11:15:49.735Z,61.30
2022-10-06T11:18:37.030Z,60.19
2022-10-06T11:21:16.758Z,60.97
2022-10-06T11:23:58.568Z,59.50
2022-10-06T11:26:57.924Z,59.39
2022-10-06T11:29:41.920Z,59.15
2022-10-06T11:32:28.224Z,59.27
2022-10-06T11:35:03.000Z,58.59
2022-10-06T11:37:42.155Z,57.81
2022-10-06T11:40:42.580Z,58.44
2022-10-06T11:43:28.765Z,58.42
2022-10-06T11:46:11.016Z,57.71
2022-10-06T11:48:46.677Z,58.63
2022-10-06T11:51:31.820Z,58.81
2022-10-06T11:54:48.368Z,58.51
2022-10-06T11:57:56.395Z,58.09
2022-10-06T12:00:54.709Z,58.66
2022-10-06T12:03:48.458Z,58.81
2022-10-06T12:06:59.636Z,60.99
2022-10-06T12:09:53.054Z,60.68
2022-10-06T12:13:31.780Z,59.58
2022-10-06T12:19:23.354Z,62.25
2022-10-06T12:22:02.054Z,59.94
2022-10-06T12:24:42.626Z,58.31
2022-10-06T12:27:44.246Z,56.63
2022-10-06T12:30:27.962Z,55.00
2022-10-06T12:33:05.736Z,53.93
2022-10-06T12:35:40.982Z,54.30
2022-10-06T12:39:02.240Z,55.24
2022-10-06T12:42:01.677Z,53.63
2022-10-06T12:44:39.886Z,53.49
2022-10-06T12:47:21.731Z,53.20
2022-10-06T12:50:00.743Z,53.37
2022-10-06T12:52:48.137Z,53.88
2022-10-06T12:55:45.602Z,51.11
2022-10-06T12:58:20.903Z,51.20
2022-10-06T13:01:00.205Z,51.55
2022-10-06T13:03:36.126Z,52.77
2022-10-06T13:06:11.337Z,51.77
2022-10-06T13:08:45.424Z,51.68
2022-10-06T13:11:22.027Z,51.97
2022-10-06T13:13:58.605Z,51.06
2022-10-06T13:16:39.471Z,52.05
2022-10-06T13:19:20.437Z,51.57
2022-10-06T13:21:55.527Z,51.51
2022-10-06T13:24:29.615Z,50.85
2022-10-06T13:27:04.149Z,50.80
2022-10-06T13:29:38.359Z,51.83
2022-10-06T13:32:18.589Z,51.52
2022-10-06T13:34:55.311Z,52.35
2022-10-06T13:37:29.932Z,53.86
2022-10-06T13:40:21.889Z,52.62
2022-10-06T13:42:56.743Z,53.87
2022-10-06T13:45:31.886Z,54.29
2022-10-06T13:48:09.799Z,53.78
2022-10-06T13:50:50.162Z,54.37
2022-10-06T13:53:31.159Z,55.14
2022-10-06T13:56:05.159Z,57.53
2022-10-06T13:58:39.628Z,55.86
2022-10-06T14:01:13.907Z,57.17
2022-10-06T14:03:48.260Z,58.27
2022-10-06T14:06:26.350Z,59.64
2022-10-06T14:09:02.004Z,59.22
2022-10-06T14:11:36.109Z,58.52
2022-10-06T14:14:18.032Z,58.59
2022-10-06T14:16:55.217Z,61.49
2022-10-06T14:19:34.916Z,63.15
2022-10-06T14:22:35.466Z,63.32
2022-10-06T14:25:13.224Z,61.43
2022-10-06T14:27:47.353Z,61.89
2022-10-06T14:30:22.104Z,60.78
2022-10-06T14:32:56.931Z,60.73
2022-10-06T14:35:31.370Z,60.19
2022-10-06T14:38:06.983Z,60.78
2022-10-06T14:40:42.128Z,60.78
2022-10-06T14:43:16.234Z,61.39
2022-10-06T14:45:50.613Z,61.69
2022-10-06T14:48:24.952Z,62.24
2022-10-06T14:51:03.937Z,63.42
2022-10-06T14:53:40.437Z,62.12
2022-10-06T14:56:16.063Z,63.29
2022-10-06T14:58:51.030Z,62.45
2022-10-06T15:01:26.899Z,63.50
2022-10-06T15:04:02.780Z,65.00
2022-10-06T15:06:54.644Z,66.06
2022-10-06T15:09:31.289Z,66.73
2022-10-06T15:12:06.239Z,66.41
2022-10-06T15:14:40.304Z,67.39
2022-10-06T15:17:14.673Z,65.74
2022-10-06T15:19:49.611Z,68.15
2022-10-06T15:22:24.039Z,70.10
2022-10-06T15:24:59.451Z,70.28
2022-10-06T15:27:51.702Z,70.70
2022-10-06T15:30:25.957Z,71.04
2022-10-06T15:33:06.102Z,70.44
2022-10-06T15:35:40.198Z,69.57
2022-10-06T15:38:14.746Z,67.96
2022-10-06T15:40:50.244Z,67.97
2022-10-06T15:43:44.633Z,68.79
2022-10-06T15:46:18.787Z,68.44
2022-10-06T15:48:53.844Z,68.62
2022-10-06T15:51:30.348Z,68.67
2022-10-06T15:54:04.960Z,68.46
2022-10-06T15:56:42.173Z,68.62
2022-10-06T15:59:17.647Z,68.90
2022-10-06T16:01:56.299Z,67.72
2022-10-06T16:04:35.985Z,67.35
2022-10-06T16:07:12.854Z,66.97
2022-10-06T16:09:48.896Z,67.55
2022-10-06T16:12:28.432Z,67.92
2022-10-06T16:15:02.826Z,67.62
2022-10-06T16:17:37.238Z,68.02
2022-10-06T16:20:12.189Z,68.01
2022-10-06T16:22:46.207Z,68.25
2022-10-06T16:25:20.555Z,68.20
2022-10-06T16:27:56.216Z,68.29
2022-10-06T16:30:30.979Z,68.57
2022-10-06T16:33:05.033Z,68.79
2022-10-06T16:35:39.365Z,68.90
2022-10-06T16:38:14.147Z,69.52
2022-10-06T16:40:55.265Z,70.05
2022-10-06T16:43:34.295Z,70.10
2022-10-06T16:46:10.428Z,70.48
2022-10-06T16:48:46.614Z,70.66
2022-10-06T16:51:22.695Z,70.90
2022-10-06T16:53:59.179Z,71.74
2022-10-06T16:56:35.908Z,71.27
2022-10-06T16:59:15.428Z,71.67
2022-10-06T17:01:50.992Z,72.39
2022-10-06T17:04:26.642Z,72.37
2022-10-06T17:07:01.648Z,71.72
2022-10-06T17:09:35.818Z,72.21
2022-10-06T17:12:10.207Z,73.34
2022-10-06T17:14:45.614Z,73.79
2022-10-06T17:17:20.011Z,73.40
2022-10-06T17:19:54.310Z,72.86
2022-10-06T17:22:28.800Z,73.20
2022-10-06T17:25:02.987Z,74.11
2022-10-06T17:27:41.946Z,73.80
2022-10-06T17:30:17.844Z,73.40
2022-10-06T17:32:52.355Z,73.49
2022-10-06T17:35:26.476Z,72.73
2022-10-06T17:38:02.707Z,72.30
2022-10-06T17:40:36.864Z,72.54
2022-10-06T17:43:11.289Z,72.81
2022-10-06T17:45:47.855Z,72.39
2022-10-06T17:48:29.269Z,72.69
2022-10-06T17:51:03.359Z,81.41
2022-10-06T17:53:40.857Z,83.21
2022-10-06T17:56:17.291Z,80.24
2022-10-06T17:58:54.656Z,74.19
2022-10-06T18:01:32.837Z,72.50
2022-10-06T18:04:08.427Z,72.62
2022-10-06T18:06:43.332Z,80.64
2022-10-06T18:09:18.450Z,78.20
2022-10-06T18:11:56.098Z,75.40
2022-10-06T18:14:33.657Z,74.83
2022-10-06T18:17:09.133Z,75.13
2022-10-06T18:19:44.177Z,75.45
2022-10-06T18:22:18.237Z,75.18
2022-10-06T18:24:55.091Z,75.74
2022-10-06T18:27:33.477Z,76.64
2022-10-06T18:30:09.377Z,76.70
2022-10-06T18:38:37.141Z,76.76
2022-10-06T18:41:14.338Z,77.22
2022-10-06T18:43:48.950Z,78.12
2022-10-06T18:46:41.199Z,87.82
2022-10-06T18:49:19.086Z,86.58
2022-10-06T18:51:58.319Z,84.96
2022-10-06T18:54:32.588Z,77.50
2022-10-06T18:57:07.178Z,76.88
2022-10-06T18:59:41.415Z,77.75
2022-10-06T19:02:16.862Z,77.64
2022-10-06T19:04:52.820Z,77.64
2022-10-06T19:07:30.933Z,78.29
2022-10-06T19:10:06.032Z,78.14
2022-10-06T19:12:40.571Z,79.37
2022-10-06T19:15:19.443Z,80.00
2022-10-06T19:17:55.373Z,80.38
2022-10-06T19:20:32.096Z,80.54
2022-10-06T19:23:06.444Z,80.60
2022-10-06T19:25:40.473Z,80.31
2022-10-06T19:28:16.113Z,80.36
2022-10-06T19:30:58.670Z,80.44
2022-10-06T19:33:33.881Z,80.61
2022-10-06T19:36:12.473Z,80.21
2022-10-06T19:38:47.959Z,81.25
2022-10-06T19:41:39.870Z,81.36
2022-10-06T19:44:14.155Z,81.65
2022-10-06T19:46:48.879Z,81.21
2022-10-06T19:49:24.576Z,80.76
2022-10-06T19:52:00.072Z,80.52
2022-10-06T19:54:34.490Z,80.64
2022-10-06T19:57:11.605Z,80.39
2022-10-06T19:59:47.523Z,80.38
2022-10-06T20:02:21.673Z,80.69
2022-10-06T20:04:56.020Z,80.90
2022-10-06T20:07:31.469Z,91.03
2022-10-06T20:10:07.505Z,89.91
2022-10-06T20:12:42.560Z,87.55
2022-10-06T20:15:16.916Z,81.31
2022-10-06T20:17:51.482Z,77.91
2022-10-06T20:20:26.025Z,78.58
2022-10-06T20:23:01.451Z,78.45
2022-10-06T20:25:35.852Z,78.91
2022-10-06T20:28:10.643Z,78.74
2022-10-06T20:30:50.082Z,79.13
2022-10-06T20:33:24.370Z,79.74
2022-10-06T20:36:04.484Z,79.83
2022-10-06T20:38:58.164Z,80.27
2022-10-06T20:41:33.787Z,80.94
2022-10-06T20:44:08.113Z,80.95
2022-10-06T20:46:42.999Z,81.48
2022-10-06T20:49:18.655Z,81.42
2022-10-06T20:51:53.188Z,81.02
2022-10-06T20:54:31.040Z,81.85
2022-10-06T20:57:09.550Z,81.55
2022-10-06T20:59:45.814Z,81.37
2022-10-06T21:02:20.263Z,81.58
2022-10-06T21:04:54.346Z,81.61
2022-10-06T21:07:28.855Z,82.10
2022-10-06T21:10:04.658Z,82.44
2022-10-06T21:12:40.112Z,80.99
2022-10-06T21:15:14.299Z,81.89
2022-10-06T21:17:49.075Z,83.28
2022-10-06T21:20:23.147Z,83.29
2022-10-06T21:22:57.587Z,82.91
2022-10-06T21:25:33.096Z,83.19
2022-10-06T21:28:07.510Z,83.64
2022-10-06T21:30:44.295Z,84.30
2022-10-06T21:33:18.848Z,83.99
2022-10-06T21:36:00.224Z,83.99
2022-10-06T21:38:37.469Z,83.28
2022-10-06T21:41:31.915Z,82.95
2022-10-06T21:44:08.317Z,82.71
2022-10-06T21:46:44.062Z,82.93
2022-10-06T21:49:20.489Z,83.40
2022-10-06T21:51:56.297Z,83.10
2022-10-06T21:54:30.733Z,83.28
2022-10-06T21:57:08.130Z,83.15
2022-10-06T21:59:42.555Z,83.11
2022-10-06T22:02:16.575Z,82.81
2022-10-06T22:04:52.117Z,83.25
2022-10-06T22:07:26.226Z,83.70
2022-10-06T22:10:01.574Z,83.91
2022-10-06T22:12:37.109Z,83.61
2022-10-06T22:15:12.430Z,84.18
2022-10-06T22:17:47.710Z,83.73
2022-10-06T22:20:22.061Z,82.48
2022-10-06T22:22:56.093Z,83.20
2022-10-06T22:25:30.587Z,83.84
2022-10-06T22:28:06.190Z,84.00
2022-10-06T22:30:40.503Z,83.46
2022-10-06T22:33:14.614Z,83.15
2022-10-06T22:35:52.229Z,84.03
2022-10-06T22:38:26.622Z,83.91
2022-10-06T22:41:01.871Z,83.83
2022-10-06T22:43:37.832Z,83.73
2022-10-06T22:46:13.428Z,83.91
2022-10-06T22:48:47.551Z,83.51
2022-10-06T22:51:22.649Z,83.89
2022-10-06T22:53:58.827Z,83.44
2022-10-06T22:56:34.656Z,83.19
2022-10-06T22:59:10.198Z,83.08
2022-10-06T23:01:44.609Z,83.06
2022-10-06T23:04:18.729Z,83.61
2022-10-06T23:06:53.077Z,83.69
2022-10-06T23:09:27.891Z,83.82
2022-10-06T23:12:02.189Z,83.26
2022-10-06T23:14:37.652Z,83.57
2022-10-06T23:17:12.009Z,83.44
2022-10-06T23:19:46.252Z,83.55
2022-10-06T23:22:22.712Z,83.14
2022-10-06T23:24:56.816Z,82.75
2022-10-06T23:27:31.322Z,83.11
2022-10-06T23:30:10.155Z,84.22
2022-10-06T23:32:45.309Z,84.50
2022-10-06T23:35:19.399Z,84.08
2022-10-06T23:37:53.815Z,83.76
2022-10-06T23:40:29.705Z,84.04
2022-10-06T23:43:04.121Z,84.00
2022-10-06T23:45:40.363Z,84.47
2022-10-06T23:48:14.814Z,83.43
2022-10-06T23:51:02.739Z,83.80
2022-10-06T23:53:37.452Z,84.32
2022-10-06T23:56:12.310Z,83.04
2022-10-06T23:58:46.802Z,82.72
